KGVE/GVE METAR and TAF weather

Enter ICAO airport designator
Station Type Date Time Source
KGVE METAR 2021/05/13 06:15 UTC NOAA

KGVE 130615Z AUTO 00000KT 10SM CLR 05/05 A3023 RMK AO1 T00450045


Station Type Date Time Source
KGVE Decoded METAR 2021/05/13 06:15 UTC NOAA

Station name not available
May 13, 2021 - 02:15 AM EDT / 2021.05.13 0615 UTC
Wind: Calm:0
Visibility: 10 mile(s):0
Sky conditions: clear
Temperature: 40.1 F (4.5 C)
Dew Point: 40.1 F (4.5 C)
Relative Humidity: 100%
Pressure (altimeter): 30.23 in. Hg (1023 hPa)
ob: KGVE 130615Z AUTO 00000KT 10SM CLR 05/05 A3023 RMK AO1 T00450045
cycle: 6

Station Type Date Time Source
KGVE TAF UTC NOAA

Error!

Example: see airport list